sensor_id;sensor_type;location;lat;lon;timestamp;P1;durP1;ratioP1;P2;durP2;ratioP2
18685;SDS011;9473;52.342;13.110;2023-02-15T00:01:26;28.88;;;10.32;;
18685;SDS011;9473;52.342;13.110;2023-02-15T00:03:53;24.05;;;8.77;;
18685;SDS011;9473;52.342;13.110;2023-02-15T00:06:20;24.90;;;9.75;;
18685;SDS011;9473;52.342;13.110;2023-02-15T00:08:48;25.45;;;9.85;;
18685;SDS011;9473;52.342;13.110;2023-02-15T00:11:15;23.77;;;10.35;;
18685;SDS011;9473;52.342;13.110;2023-02-15T00:14:04;24.88;;;9.90;;
18685;SDS011;9473;52.342;13.110;2023-02-15T00:16:31;26.55;;;9.65;;
18685;SDS011;9473;52.342;13.110;2023-02-15T00:18:58;23.25;;;9.20;;
18685;SDS011;9473;52.342;13.110;2023-02-15T00:21:26;27.63;;;9.40;;
18685;SDS011;9473;52.342;13.110;2023-02-15T00:23:55;25.17;;;9.85;;
18685;SDS011;9473;52.342;13.110;2023-02-15T00:26:22;24.13;;;8.35;;
18685;SDS011;9473;52.342;13.110;2023-02-15T00:28:49;23.90;;;8.95;;
18685;SDS011;9473;52.342;13.110;2023-02-15T00:31:16;25.55;;;8.80;;
18685;SDS011;9473;52.342;13.110;2023-02-15T00:33:43;25.50;;;10.07;;
18685;SDS011;9473;52.342;13.110;2023-02-15T00:36:10;23.70;;;8.80;;
18685;SDS011;9473;52.342;13.110;2023-02-15T00:38:37;26.48;;;9.82;;
18685;SDS011;9473;52.342;13.110;2023-02-15T00:41:06;28.05;;;10.25;;
18685;SDS011;9473;52.342;13.110;2023-02-15T00:43:34;26.23;;;10.32;;
18685;SDS011;9473;52.342;13.110;2023-02-15T00:46:01;23.77;;;9.70;;
18685;SDS011;9473;52.342;13.110;2023-02-15T00:48:28;26.23;;;10.20;;
18685;SDS011;9473;52.342;13.110;2023-02-15T00:50:56;22.67;;;8.32;;
18685;SDS011;9473;52.342;13.110;2023-02-15T00:53:23;25.40;;;9.13;;
18685;SDS011;9473;52.342;13.110;2023-02-15T00:55:51;24.88;;;9.43;;
18685;SDS011;9473;52.342;13.110;2023-02-15T00:58:19;24.85;;;9.68;;
18685;SDS011;9473;52.342;13.110;2023-02-15T01:00:47;25.92;;;10.25;;
18685;SDS011;9473;52.342;13.110;2023-02-15T01:03:15;25.95;;;10.57;;
18685;SDS011;9473;52.342;13.110;2023-02-15T01:05:42;26.00;;;9.75;;
18685;SDS011;9473;52.342;13.110;2023-02-15T01:08:09;24.70;;;10.00;;
18685;SDS011;9473;52.342;13.110;2023-02-15T01:10:36;27.05;;;10.60;;
18685;SDS011;9473;52.342;13.110;2023-02-15T01:13:03;25.17;;;9.90;;
18685;SDS011;9473;52.342;13.110;2023-02-15T01:15:31;33.95;;;10.55;;
18685;SDS011;9473;52.342;13.110;2023-02-15T01:18:00;25.17;;;10.07;;
18685;SDS011;9473;52.342;13.110;2023-02-15T01:20:27;33.42;;;11.05;;
18685;SDS011;9473;52.342;13.110;2023-02-15T01:22:55;37.08;;;12.02;;
18685;SDS011;9473;52.342;13.110;2023-02-15T01:25:23;36.13;;;12.93;;
18685;SDS011;9473;52.342;13.110;2023-02-15T01:27:50;35.13;;;11.00;;
18685;SDS011;9473;52.342;13.110;2023-02-15T01:30:17;35.38;;;12.23;;
18685;SDS011;9473;52.342;13.110;2023-02-15T01:32:45;36.47;;;11.93;;
18685;SDS011;9473;52.342;13.110;2023-02-15T01:35:12;33.42;;;11.63;;
18685;SDS011;9473;52.342;13.110;2023-02-15T01:37:39;36.58;;;12.48;;
18685;SDS011;9473;52.342;13.110;2023-02-15T01:40:07;36.00;;;11.20;;
18685;SDS011;9473;52.342;13.110;2023-02-15T01:42:37;30.67;;;10.65;;
18685;SDS011;9473;52.342;13.110;2023-02-15T01:45:04;35.05;;;11.85;;
18685;SDS011;9473;52.342;13.110;2023-02-15T01:47:38;30.58;;;11.02;;
18685;SDS011;9473;52.342;13.110;2023-02-15T01:50:08;31.02;;;11.93;;
18685;SDS011;9473;52.342;13.110;2023-02-15T01:52:36;28.55;;;10.90;;
18685;SDS011;9473;52.342;13.110;2023-02-15T01:55:03;29.60;;;10.52;;
18685;SDS011;9473;52.342;13.110;2023-02-15T01:57:31;31.63;;;11.63;;
18685;SDS011;9473;52.342;13.110;2023-02-15T01:59:58;29.15;;;10.35;;
18685;SDS011;9473;52.342;13.110;2023-02-15T02:02:27;33.00;;;11.93;;
18685;SDS011;9473;52.342;13.110;2023-02-15T02:04:54;31.65;;;11.05;;
18685;SDS011;9473;52.342;13.110;2023-02-15T02:07:26;36.40;;;11.98;;
18685;SDS011;9473;52.342;13.110;2023-02-15T02:09:53;32.20;;;11.85;;
18685;SDS011;9473;52.342;13.110;2023-02-15T02:12:20;35.15;;;11.98;;
18685;SDS011;9473;52.342;13.110;2023-02-15T02:14:48;36.30;;;11.68;;
18685;SDS011;9473;52.342;13.110;2023-02-15T02:17:16;37.17;;;11.98;;
18685;SDS011;9473;52.342;13.110;2023-02-15T02:19:48;34.85;;;12.52;;
18685;SDS011;9473;52.342;13.110;2023-02-15T02:22:27;33.40;;;11.48;;
18685;SDS011;9473;52.342;13.110;2023-02-15T02:27:47;32.00;;;10.75;;
18685;SDS011;9473;52.342;13.110;2023-02-15T02:35:42;29.55;;;9.95;;
18685;SDS011;9473;52.342;13.110;2023-02-15T02:38:11;34.78;;;12.00;;
18685;SDS011;9473;52.342;13.110;2023-02-15T02:40:43;33.83;;;10.85;;
18685;SDS011;9473;52.342;13.110;2023-02-15T02:43:15;44.00;;;11.48;;
18685;SDS011;9473;52.342;13.110;2023-02-15T02:45:47;51.55;;;11.73;;
18685;SDS011;9473;52.342;13.110;2023-02-15T02:48:18;43.58;;;12.38;;
18685;SDS011;9473;52.342;13.110;2023-02-15T02:50:47;44.13;;;12.40;;
18685;SDS011;9473;52.342;13.110;2023-02-15T02:53:14;36.78;;;12.30;;
18685;SDS011;9473;52.342;13.110;2023-02-15T02:55:42;40.30;;;12.77;;
18685;SDS011;9473;52.342;13.110;2023-02-15T02:58:11;30.30;;;10.85;;
18685;SDS011;9473;52.342;13.110;2023-02-15T03:00:42;40.60;;;13.43;;
18685;SDS011;9473;52.342;13.110;2023-02-15T03:03:11;36.63;;;12.18;;
18685;SDS011;9473;52.342;13.110;2023-02-15T03:05:40;35.45;;;12.45;;
18685;SDS011;9473;52.342;13.110;2023-02-15T03:08:09;41.90;;;13.30;;
18685;SDS011;9473;52.342;13.110;2023-02-15T03:10:37;32.58;;;11.32;;
18685;SDS011;9473;52.342;13.110;2023-02-15T03:13:05;45.83;;;13.77;;
18685;SDS011;9473;52.342;13.110;2023-02-15T03:15:33;49.33;;;12.63;;
18685;SDS011;9473;52.342;13.110;2023-02-15T03:18:15;47.63;;;13.45;;
18685;SDS011;9473;52.342;13.110;2023-02-15T03:20:42;40.22;;;13.77;;
18685;SDS011;9473;52.342;13.110;2023-02-15T03:23:12;35.58;;;12.60;;
18685;SDS011;9473;52.342;13.110;2023-02-15T03:25:40;38.08;;;13.43;;
18685;SDS011;9473;52.342;13.110;2023-02-15T03:28:08;41.72;;;13.20;;
18685;SDS011;9473;52.342;13.110;2023-02-15T03:30:37;35.55;;;10.60;;
18685;SDS011;9473;52.342;13.110;2023-02-15T03:33:04;35.88;;;12.30;;
18685;SDS011;9473;52.342;13.110;2023-02-15T03:35:33;45.03;;;13.30;;
18685;SDS011;9473;52.342;13.110;2023-02-15T03:38:03;32.08;;;10.98;;
18685;SDS011;9473;52.342;13.110;2023-02-15T03:40:34;47.47;;;14.85;;
18685;SDS011;9473;52.342;13.110;2023-02-15T03:43:21;35.90;;;12.43;;
18685;SDS011;9473;52.342;13.110;2023-02-15T03:45:49;36.72;;;12.52;;
18685;SDS011;9473;52.342;13.110;2023-02-15T03:48:20;33.80;;;11.70;;
18685;SDS011;9473;52.342;13.110;2023-02-15T03:50:48;33.85;;;11.57;;
18685;SDS011;9473;52.342;13.110;2023-02-15T03:53:33;33.13;;;10.27;;
18685;SDS011;9473;52.342;13.110;2023-02-15T03:56:01;26.58;;;9.55;;
18685;SDS011;9473;52.342;13.110;2023-02-15T03:58:28;22.20;;;8.40;;
18685;SDS011;9473;52.342;13.110;2023-02-15T04:01:17;32.10;;;10.23;;
18685;SDS011;9473;52.342;13.110;2023-02-15T04:04:06;25.00;;;9.63;;
18685;SDS011;9473;52.342;13.110;2023-02-15T04:06:34;27.23;;;9.32;;
18685;SDS011;9473;52.342;13.110;2023-02-15T04:09:01;24.15;;;9.27;;
18685;SDS011;9473;52.342;13.110;2023-02-15T04:11:47;29.35;;;10.13;;
18685;SDS011;9473;52.342;13.110;2023-02-15T04:14:14;30.38;;;10.20;;
18685;SDS011;9473;52.342;13.110;2023-02-15T04:16:58;38.90;;;11.05;;
18685;SDS011;9473;52.342;13.110;2023-02-15T04:19:25;31.75;;;10.25;;
18685;SDS011;9473;52.342;13.110;2023-02-15T04:22:10;31.85;;;9.73;;
18685;SDS011;9473;52.342;13.110;2023-02-15T04:24:54;31.17;;;9.95;;
18685;SDS011;9473;52.342;13.110;2023-02-15T04:27:38;40.42;;;11.55;;
18685;SDS011;9473;52.342;13.110;2023-02-15T04:30:06;40.13;;;12.18;;
18685;SDS011;9473;52.342;13.110;2023-02-15T04:32:33;52.97;;;14.00;;
18685;SDS011;9473;52.342;13.110;2023-02-15T04:35:00;60.80;;;15.68;;
18685;SDS011;9473;52.342;13.110;2023-02-15T04:37:27;48.05;;;13.75;;
18685;SDS011;9473;52.342;13.110;2023-02-15T04:39:54;33.63;;;10.18;;
18685;SDS011;9473;52.342;13.110;2023-02-15T04:42:23;46.55;;;13.77;;
18685;SDS011;9473;52.342;13.110;2023-02-15T04:44:51;50.63;;;13.57;;
18685;SDS011;9473;52.342;13.110;2023-02-15T04:47:18;45.38;;;11.98;;
18685;SDS011;9473;52.342;13.110;2023-02-15T04:49:45;48.65;;;12.85;;
18685;SDS011;9473;52.342;13.110;2023-02-15T04:52:12;43.97;;;11.20;;
18685;SDS011;9473;52.342;13.110;2023-02-15T04:54:39;61.17;;;14.50;;
18685;SDS011;9473;52.342;13.110;2023-02-15T04:57:06;37.25;;;10.70;;
18685;SDS011;9473;52.342;13.110;2023-02-15T04:59:33;60.40;;;14.65;;
18685;SDS011;9473;52.342;13.110;2023-02-15T05:02:01;42.22;;;12.40;;
18685;SDS011;9473;52.342;13.110;2023-02-15T05:04:28;44.47;;;10.80;;
18685;SDS011;9473;52.342;13.110;2023-02-15T05:06:55;42.00;;;11.85;;
18685;SDS011;9473;52.342;13.110;2023-02-15T05:09:22;52.85;;;14.02;;
18685;SDS011;9473;52.342;13.110;2023-02-15T05:11:49;31.98;;;11.13;;
18685;SDS011;9473;52.342;13.110;2023-02-15T05:14:16;39.65;;;11.00;;
18685;SDS011;9473;52.342;13.110;2023-02-15T05:16:43;33.53;;;11.70;;
18685;SDS011;9473;52.342;13.110;2023-02-15T05:19:11;49.92;;;12.38;;
18685;SDS011;9473;52.342;13.110;2023-02-15T05:21:38;38.45;;;12.25;;
18685;SDS011;9473;52.342;13.110;2023-02-15T05:24:05;33.42;;;11.85;;
18685;SDS011;9473;52.342;13.110;2023-02-15T05:26:53;33.35;;;11.75;;
18685;SDS011;9473;52.342;13.110;2023-02-15T05:29:37;32.60;;;11.20;;
18685;SDS011;9473;52.342;13.110;2023-02-15T05:32:04;33.92;;;11.32;;
18685;SDS011;9473;52.342;13.110;2023-02-15T05:34:33;50.78;;;11.57;;
18685;SDS011;9473;52.342;13.110;2023-02-15T05:36:59;37.00;;;11.63;;
18685;SDS011;9473;52.342;13.110;2023-02-15T05:39:26;28.13;;;9.82;;
18685;SDS011;9473;52.342;13.110;2023-02-15T05:41:53;25.60;;;9.35;;
18685;SDS011;9473;52.342;13.110;2023-02-15T05:44:20;29.55;;;10.57;;
18685;SDS011;9473;52.342;13.110;2023-02-15T05:46:47;31.13;;;10.07;;
18685;SDS011;9473;52.342;13.110;2023-02-15T05:49:14;34.22;;;10.50;;
18685;SDS011;9473;52.342;13.110;2023-02-15T05:51:42;33.42;;;10.00;;
18685;SDS011;9473;52.342;13.110;2023-02-15T05:54:09;36.72;;;10.73;;
18685;SDS011;9473;52.342;13.110;2023-02-15T05:56:36;28.73;;;10.80;;
18685;SDS011;9473;52.342;13.110;2023-02-15T05:59:03;24.98;;;9.38;;
18685;SDS011;9473;52.342;13.110;2023-02-15T06:01:30;33.67;;;9.82;;
18685;SDS011;9473;52.342;13.110;2023-02-15T06:03:57;26.65;;;8.70;;
18685;SDS011;9473;52.342;13.110;2023-02-15T06:06:24;34.55;;;9.98;;
18685;SDS011;9473;52.342;13.110;2023-02-15T06:08:52;30.92;;;9.23;;
18685;SDS011;9473;52.342;13.110;2023-02-15T06:11:19;28.25;;;9.98;;
18685;SDS011;9473;52.342;13.110;2023-02-15T06:13:45;23.75;;;8.65;;
18685;SDS011;9473;52.342;13.110;2023-02-15T06:16:12;29.63;;;10.13;;
18685;SDS011;9473;52.342;13.110;2023-02-15T06:18:40;24.92;;;9.40;;
18685;SDS011;9473;52.342;13.110;2023-02-15T06:21:07;25.02;;;8.90;;
18685;SDS011;9473;52.342;13.110;2023-02-15T06:23:34;24.63;;;8.00;;
18685;SDS011;9473;52.342;13.110;2023-02-15T06:26:03;25.50;;;8.48;;
18685;SDS011;9473;52.342;13.110;2023-02-15T06:28:29;24.75;;;8.57;;
18685;SDS011;9473;52.342;13.110;2023-02-15T06:30:56;24.70;;;9.10;;
18685;SDS011;9473;52.342;13.110;2023-02-15T06:33:23;24.60;;;9.15;;
18685;SDS011;9473;52.342;13.110;2023-02-15T06:35:50;23.40;;;8.60;;
18685;SDS011;9473;52.342;13.110;2023-02-15T06:38:17;26.80;;;8.43;;
18685;SDS011;9473;52.342;13.110;2023-02-15T06:40:44;24.35;;;9.05;;
18685;SDS011;9473;52.342;13.110;2023-02-15T06:43:13;25.35;;;9.00;;
18685;SDS011;9473;52.342;13.110;2023-02-15T06:45:40;25.38;;;8.95;;
18685;SDS011;9473;52.342;13.110;2023-02-15T06:48:07;27.98;;;9.57;;
18685;SDS011;9473;52.342;13.110;2023-02-15T06:50:36;27.08;;;9.57;;
18685;SDS011;9473;52.342;13.110;2023-02-15T06:53:02;26.27;;;9.13;;
18685;SDS011;9473;52.342;13.110;2023-02-15T06:55:29;27.42;;;9.02;;
18685;SDS011;9473;52.342;13.110;2023-02-15T06:57:56;27.73;;;9.55;;
18685;SDS011;9473;52.342;13.110;2023-02-15T07:00:25;33.35;;;10.27;;
18685;SDS011;9473;52.342;13.110;2023-02-15T07:02:53;30.98;;;10.07;;
18685;SDS011;9473;52.342;13.110;2023-02-15T07:05:21;37.00;;;11.05;;
18685;SDS011;9473;52.342;13.110;2023-02-15T07:07:48;31.70;;;10.93;;
18685;SDS011;9473;52.342;13.110;2023-02-15T07:10:15;32.67;;;10.55;;
18685;SDS011;9473;52.342;13.110;2023-02-15T07:12:42;30.42;;;10.18;;
18685;SDS011;9473;52.342;13.110;2023-02-15T07:15:09;35.65;;;11.38;;
18685;SDS011;9473;52.342;13.110;2023-02-15T07:17:37;32.17;;;10.15;;
18685;SDS011;9473;52.342;13.110;2023-02-15T07:20:09;35.22;;;10.65;;
18685;SDS011;9473;52.342;13.110;2023-02-15T07:22:36;39.38;;;10.75;;
18685;SDS011;9473;52.342;13.110;2023-02-15T07:25:03;29.33;;;10.15;;
18685;SDS011;9473;52.342;13.110;2023-02-15T07:27:31;34.05;;;10.48;;
18685;SDS011;9473;52.342;13.110;2023-02-15T07:29:57;26.08;;;9.65;;
18685;SDS011;9473;52.342;13.110;2023-02-15T07:32:26;33.13;;;9.85;;
18685;SDS011;9473;52.342;13.110;2023-02-15T07:34:55;23.98;;;8.85;;
18685;SDS011;9473;52.342;13.110;2023-02-15T07:37:21;29.30;;;9.88;;
18685;SDS011;9473;52.342;13.110;2023-02-15T07:39:48;36.17;;;10.90;;
18685;SDS011;9473;52.342;13.110;2023-02-15T07:42:15;31.48;;;10.70;;
18685;SDS011;9473;52.342;13.110;2023-02-15T07:44:44;34.88;;;11.77;;
18685;SDS011;9473;52.342;13.110;2023-02-15T07:47:11;26.83;;;9.93;;
18685;SDS011;9473;52.342;13.110;2023-02-15T07:49:38;30.42;;;10.38;;
18685;SDS011;9473;52.342;13.110;2023-02-15T07:52:06;30.92;;;11.20;;
18685;SDS011;9473;52.342;13.110;2023-02-15T07:54:33;29.80;;;10.20;;
18685;SDS011;9473;52.342;13.110;2023-02-15T07:57:00;32.63;;;10.90;;
18685;SDS011;9473;52.342;13.110;2023-02-15T07:59:27;33.42;;;11.75;;
18685;SDS011;9473;52.342;13.110;2023-02-15T08:01:54;34.85;;;11.13;;
18685;SDS011;9473;52.342;13.110;2023-02-15T08:04:22;32.17;;;11.15;;
18685;SDS011;9473;52.342;13.110;2023-02-15T08:06:49;38.17;;;12.23;;
18685;SDS011;9473;52.342;13.110;2023-02-15T08:09:20;35.03;;;12.52;;
18685;SDS011;9473;52.342;13.110;2023-02-15T08:11:47;30.05;;;10.82;;
18685;SDS011;9473;52.342;13.110;2023-02-15T08:14:15;33.20;;;11.40;;
18685;SDS011;9473;52.342;13.110;2023-02-15T08:16:43;37.60;;;11.90;;
18685;SDS011;9473;52.342;13.110;2023-02-15T08:19:10;32.80;;;10.68;;
18685;SDS011;9473;52.342;13.110;2023-02-15T08:21:39;41.95;;;12.60;;
18685;SDS011;9473;52.342;13.110;2023-02-15T08:24:07;33.75;;;11.13;;
18685;SDS011;9473;52.342;13.110;2023-02-15T08:26:35;39.90;;;11.88;;
18685;SDS011;9473;52.342;13.110;2023-02-15T08:29:03;42.20;;;12.73;;
18685;SDS011;9473;52.342;13.110;2023-02-15T08:31:31;35.92;;;11.77;;
18685;SDS011;9473;52.342;13.110;2023-02-15T08:33:59;36.50;;;12.55;;
18685;SDS011;9473;52.342;13.110;2023-02-15T08:36:26;35.83;;;11.95;;
18685;SDS011;9473;52.342;13.110;2023-02-15T08:38:54;36.80;;;11.63;;
18685;SDS011;9473;52.342;13.110;2023-02-15T08:41:22;33.47;;;12.30;;
18685;SDS011;9473;52.342;13.110;2023-02-15T08:43:51;37.80;;;12.32;;
18685;SDS011;9473;52.342;13.110;2023-02-15T08:46:19;34.42;;;11.40;;
18685;SDS011;9473;52.342;13.110;2023-02-15T08:48:46;40.55;;;13.70;;
18685;SDS011;9473;52.342;13.110;2023-02-15T08:51:14;34.95;;;12.40;;
18685;SDS011;9473;52.342;13.110;2023-02-15T08:53:42;33.85;;;12.05;;
18685;SDS011;9473;52.342;13.110;2023-02-15T08:56:09;41.03;;;13.77;;
18685;SDS011;9473;52.342;13.110;2023-02-15T08:58:36;42.38;;;13.45;;
18685;SDS011;9473;52.342;13.110;2023-02-15T09:01:11;39.97;;;13.23;;
18685;SDS011;9473;52.342;13.110;2023-02-15T09:03:42;36.42;;;12.38;;
18685;SDS011;9473;52.342;13.110;2023-02-15T09:06:09;43.22;;;15.13;;
18685;SDS011;9473;52.342;13.110;2023-02-15T09:08:37;43.10;;;12.70;;
18685;SDS011;9473;52.342;13.110;2023-02-15T09:11:05;43.47;;;13.50;;
18685;SDS011;9473;52.342;13.110;2023-02-15T09:13:32;45.53;;;14.57;;
18685;SDS011;9473;52.342;13.110;2023-02-15T09:16:00;37.58;;;13.27;;
18685;SDS011;9473;52.342;13.110;2023-02-15T09:18:28;45.72;;;14.02;;
18685;SDS011;9473;52.342;13.110;2023-02-15T09:20:55;47.53;;;14.13;;
18685;SDS011;9473;52.342;13.110;2023-02-15T09:23:22;44.53;;;14.07;;
18685;SDS011;9473;52.342;13.110;2023-02-15T09:25:49;45.33;;;15.40;;
18685;SDS011;9473;52.342;13.110;2023-02-15T09:28:16;46.42;;;14.82;;
18685;SDS011;9473;52.342;13.110;2023-02-15T09:30:43;41.92;;;14.23;;
18685;SDS011;9473;52.342;13.110;2023-02-15T09:33:10;41.85;;;14.07;;
18685;SDS011;9473;52.342;13.110;2023-02-15T09:35:38;43.53;;;13.85;;
18685;SDS011;9473;52.342;13.110;2023-02-15T09:38:05;45.78;;;14.43;;
18685;SDS011;9473;52.342;13.110;2023-02-15T09:40:33;46.25;;;14.63;;
18685;SDS011;9473;52.342;13.110;2023-02-15T09:43:12;50.03;;;15.05;;
18685;SDS011;9473;52.342;13.110;2023-02-15T09:45:56;51.13;;;15.95;;
18685;SDS011;9473;52.342;13.110;2023-02-15T09:48:36;51.50;;;15.80;;
18685;SDS011;9473;52.342;13.110;2023-02-15T09:51:14;51.22;;;14.98;;
18685;SDS011;9473;52.342;13.110;2023-02-15T09:53:48;50.80;;;16.67;;
18685;SDS011;9473;52.342;13.110;2023-02-15T09:56:19;48.65;;;16.27;;
18685;SDS011;9473;52.342;13.110;2023-02-15T09:58:52;53.88;;;16.50;;
18685;SDS011;9473;52.342;13.110;2023-02-15T10:01:24;56.13;;;15.93;;
18685;SDS011;9473;52.342;13.110;2023-02-15T10:03:57;51.85;;;16.73;;
18685;SDS011;9473;52.342;13.110;2023-02-15T10:06:31;52.10;;;16.40;;
18685;SDS011;9473;52.342;13.110;2023-02-15T10:09:03;55.45;;;17.48;;
18685;SDS011;9473;52.342;13.110;2023-02-15T10:11:38;61.35;;;17.13;;
18685;SDS011;9473;52.342;13.110;2023-02-15T10:14:14;58.45;;;17.63;;
18685;SDS011;9473;52.342;13.110;2023-02-15T10:16:45;55.40;;;16.45;;
18685;SDS011;9473;52.342;13.110;2023-02-15T10:19:17;45.55;;;14.95;;
18685;SDS011;9473;52.342;13.110;2023-02-15T10:21:52;57.38;;;17.73;;
18685;SDS011;9473;52.342;13.110;2023-02-15T10:24:28;55.35;;;17.80;;
18685;SDS011;9473;52.342;13.110;2023-02-15T10:27:01;50.20;;;17.00;;
18685;SDS011;9473;52.342;13.110;2023-02-15T10:29:32;58.70;;;18.40;;
18685;SDS011;9473;52.342;13.110;2023-02-15T10:32:04;58.78;;;17.77;;
18685;SDS011;9473;52.342;13.110;2023-02-15T10:34:34;55.72;;;18.67;;
18685;SDS011;9473;52.342;13.110;2023-02-15T10:37:08;59.00;;;18.25;;
18685;SDS011;9473;52.342;13.110;2023-02-15T10:39:41;53.40;;;17.65;;
18685;SDS011;9473;52.342;13.110;2023-02-15T10:42:11;61.00;;;18.13;;
18685;SDS011;9473;52.342;13.110;2023-02-15T10:44:44;57.63;;;17.95;;
18685;SDS011;9473;52.342;13.110;2023-02-15T10:47:18;55.40;;;17.80;;
18685;SDS011;9473;52.342;13.110;2023-02-15T10:49:53;63.85;;;19.02;;
18685;SDS011;9473;52.342;13.110;2023-02-15T10:52:28;56.53;;;18.98;;
18685;SDS011;9473;52.342;13.110;2023-02-15T10:55:00;60.58;;;18.75;;
18685;SDS011;9473;52.342;13.110;2023-02-15T10:57:30;53.15;;;17.35;;
18685;SDS011;9473;52.342;13.110;2023-02-15T11:00:05;61.58;;;19.77;;
18685;SDS011;9473;52.342;13.110;2023-02-15T11:02:40;61.38;;;19.08;;
18685;SDS011;9473;52.342;13.110;2023-02-15T11:05:20;65.03;;;19.65;;
18685;SDS011;9473;52.342;13.110;2023-02-15T11:07:52;52.45;;;18.15;;
18685;SDS011;9473;52.342;13.110;2023-02-15T11:10:24;59.58;;;18.90;;
18685;SDS011;9473;52.342;13.110;2023-02-15T11:12:53;59.53;;;19.02;;
18685;SDS011;9473;52.342;13.110;2023-02-15T11:15:24;57.53;;;19.65;;
18685;SDS011;9473;52.342;13.110;2023-02-15T11:17:52;61.97;;;17.60;;
18685;SDS011;9473;52.342;13.110;2023-02-15T11:20:23;53.10;;;18.23;;
18685;SDS011;9473;52.342;13.110;2023-02-15T11:22:52;65.00;;;18.67;;
18685;SDS011;9473;52.342;13.110;2023-02-15T11:25:21;54.85;;;18.63;;
18685;SDS011;9473;52.342;13.110;2023-02-15T11:27:49;60.13;;;20.02;;
18685;SDS011;9473;52.342;13.110;2023-02-15T11:30:18;60.03;;;19.60;;
18685;SDS011;9473;52.342;13.110;2023-02-15T11:32:46;52.55;;;17.50;;
18685;SDS011;9473;52.342;13.110;2023-02-15T11:35:18;54.30;;;18.48;;
18685;SDS011;9473;52.342;13.110;2023-02-15T11:37:48;54.83;;;18.98;;
18685;SDS011;9473;52.342;13.110;2023-02-15T11:40:19;55.97;;;18.90;;
18685;SDS011;9473;52.342;13.110;2023-02-15T11:42:47;59.75;;;19.45;;
18685;SDS011;9473;52.342;13.110;2023-02-15T11:45:18;51.35;;;18.55;;
18685;SDS011;9473;52.342;13.110;2023-02-15T11:47:46;59.80;;;20.17;;
18685;SDS011;9473;52.342;13.110;2023-02-15T11:50:13;50.70;;;18.77;;
18685;SDS011;9473;52.342;13.110;2023-02-15T11:52:42;54.17;;;19.35;;
18685;SDS011;9473;52.342;13.110;2023-02-15T11:55:11;50.38;;;18.63;;
18685;SDS011;9473;52.342;13.110;2023-02-15T11:57:40;53.42;;;19.05;;
18685;SDS011;9473;52.342;13.110;2023-02-15T12:00:11;48.42;;;18.35;;
18685;SDS011;9473;52.342;13.110;2023-02-15T12:02:40;46.58;;;16.58;;
18685;SDS011;9473;52.342;13.110;2023-02-15T12:05:11;53.83;;;17.40;;
18685;SDS011;9473;52.342;13.110;2023-02-15T12:07:40;43.75;;;17.52;;
18685;SDS011;9473;52.342;13.110;2023-02-15T12:10:13;48.70;;;18.00;;
18685;SDS011;9473;52.342;13.110;2023-02-15T12:12:46;49.15;;;17.17;;
18685;SDS011;9473;52.342;13.110;2023-02-15T12:15:13;48.03;;;17.50;;
18685;SDS011;9473;52.342;13.110;2023-02-15T12:17:40;47.70;;;17.88;;
18685;SDS011;9473;52.342;13.110;2023-02-15T12:20:20;44.53;;;17.33;;
18685;SDS011;9473;52.342;13.110;2023-02-15T12:22:48;40.67;;;15.98;;
18685;SDS011;9473;52.342;13.110;2023-02-15T12:25:20;40.85;;;15.48;;
18685;SDS011;9473;52.342;13.110;2023-02-15T12:27:48;38.28;;;15.43;;
18685;SDS011;9473;52.342;13.110;2023-02-15T12:30:18;36.45;;;14.82;;
18685;SDS011;9473;52.342;13.110;2023-02-15T12:32:47;33.03;;;12.50;;
18685;SDS011;9473;52.342;13.110;2023-02-15T12:35:25;30.30;;;13.00;;
18685;SDS011;9473;52.342;13.110;2023-02-15T12:37:54;31.60;;;13.45;;
18685;SDS011;9473;52.342;13.110;2023-02-15T12:40:23;28.00;;;11.63;;
18685;SDS011;9473;52.342;13.110;2023-02-15T12:42:52;28.10;;;11.25;;
18685;SDS011;9473;52.342;13.110;2023-02-15T12:45:20;22.63;;;10.00;;
18685;SDS011;9473;52.342;13.110;2023-02-15T12:47:47;22.80;;;9.98;;
18685;SDS011;9473;52.342;13.110;2023-02-15T12:50:34;21.27;;;10.05;;
18685;SDS011;9473;52.342;13.110;2023-02-15T12:53:06;23.13;;;10.15;;
18685;SDS011;9473;52.342;13.110;2023-02-15T12:55:33;23.35;;;10.57;;
18685;SDS011;9473;52.342;13.110;2023-02-15T12:58:08;23.13;;;10.10;;
18685;SDS011;9473;52.342;13.110;2023-02-15T13:00:35;19.23;;;9.27;;
18685;SDS011;9473;52.342;13.110;2023-02-15T13:03:02;21.08;;;10.00;;
18685;SDS011;9473;52.342;13.110;2023-02-15T13:05:31;18.75;;;8.40;;
18685;SDS011;9473;52.342;13.110;2023-02-15T13:07:58;24.50;;;9.52;;
18685;SDS011;9473;52.342;13.110;2023-02-15T13:10:27;18.13;;;8.93;;
18685;SDS011;9473;52.342;13.110;2023-02-15T13:12:55;23.83;;;9.73;;
18685;SDS011;9473;52.342;13.110;2023-02-15T13:15:34;19.10;;;9.38;;
18685;SDS011;9473;52.342;13.110;2023-02-15T13:18:02;18.48;;;8.73;;
18685;SDS011;9473;52.342;13.110;2023-02-15T13:20:29;19.33;;;9.23;;
18685;SDS011;9473;52.342;13.110;2023-02-15T13:22:58;17.73;;;8.50;;
18685;SDS011;9473;52.342;13.110;2023-02-15T13:25:26;18.25;;;8.80;;
18685;SDS011;9473;52.342;13.110;2023-02-15T13:27:55;19.05;;;8.82;;
18685;SDS011;9473;52.342;13.110;2023-02-15T13:30:24;15.77;;;8.00;;
18685;SDS011;9473;52.342;13.110;2023-02-15T13:32:54;17.58;;;8.52;;
18685;SDS011;9473;52.342;13.110;2023-02-15T13:35:22;17.73;;;8.30;;
18685;SDS011;9473;52.342;13.110;2023-02-15T13:37:55;16.20;;;8.20;;
18685;SDS011;9473;52.342;13.110;2023-02-15T13:40:25;16.92;;;8.20;;
18685;SDS011;9473;52.342;13.110;2023-02-15T13:42:54;17.67;;;8.90;;
18685;SDS011;9473;52.342;13.110;2023-02-15T13:45:31;19.17;;;8.13;;
18685;SDS011;9473;52.342;13.110;2023-02-15T13:48:02;17.70;;;8.45;;
18685;SDS011;9473;52.342;13.110;2023-02-15T13:50:38;18.58;;;7.95;;
18685;SDS011;9473;52.342;13.110;2023-02-15T13:53:15;17.05;;;7.97;;
18685;SDS011;9473;52.342;13.110;2023-02-15T13:55:46;20.25;;;8.80;;
18685;SDS011;9473;52.342;13.110;2023-02-15T14:01:06;19.13;;;8.85;;
18685;SDS011;9473;52.342;13.110;2023-02-15T14:03:49;19.20;;;8.60;;
18685;SDS011;9473;52.342;13.110;2023-02-15T14:06:30;19.30;;;8.82;;
18685;SDS011;9473;52.342;13.110;2023-02-15T14:09:05;17.42;;;8.38;;
18685;SDS011;9473;52.342;13.110;2023-02-15T14:11:37;16.92;;;8.27;;
18685;SDS011;9473;52.342;13.110;2023-02-15T14:14:14;18.38;;;8.88;;
18685;SDS011;9473;52.342;13.110;2023-02-15T14:16:51;17.35;;;8.48;;
18685;SDS011;9473;52.342;13.110;2023-02-15T14:19:23;17.40;;;8.77;;
18685;SDS011;9473;52.342;13.110;2023-02-15T14:21:53;17.58;;;8.10;;
18685;SDS011;9473;52.342;13.110;2023-02-15T14:24:25;14.80;;;7.65;;
18685;SDS011;9473;52.342;13.110;2023-02-15T14:26:56;17.75;;;8.88;;
18685;SDS011;9473;52.342;13.110;2023-02-15T14:29:28;17.42;;;8.18;;
18685;SDS011;9473;52.342;13.110;2023-02-15T14:31:59;14.57;;;7.47;;
18685;SDS011;9473;52.342;13.110;2023-02-15T14:34:29;14.95;;;8.00;;
18685;SDS011;9473;52.342;13.110;2023-02-15T14:36:58;15.35;;;7.72;;
18685;SDS011;9473;52.342;13.110;2023-02-15T14:39:27;18.58;;;8.85;;
18685;SDS011;9473;52.342;13.110;2023-02-15T14:42:14;17.05;;;8.60;;
18685;SDS011;9473;52.342;13.110;2023-02-15T14:44:42;17.67;;;9.52;;
18685;SDS011;9473;52.342;13.110;2023-02-15T14:47:13;18.48;;;8.88;;
18685;SDS011;9473;52.342;13.110;2023-02-15T14:49:44;18.27;;;8.43;;
18685;SDS011;9473;52.342;13.110;2023-02-15T14:52:12;14.98;;;8.02;;